This is the latest recevied weather packets stored in our database for station/object K1RTA-1. If no packets are shown the sender has not sent any weather packets the latest 10 day(s).
| Time | Temp. | Humidity | Pressure | Rain* | Wind** | Luminosity | Snow |
|---|---|---|---|---|---|---|---|
| 1777923385 | 18.33° C | 55% | 1010.8 hPa | 0 mm | - | - | - |
| 1777922487 | 18.89° C | 52% | 1010.9 hPa | 0 mm | - | - | - |
| 1777921587 | 18.33° C | 54% | 1011.2 hPa | 0 mm | - | - | - |
| 1777920686 | 18.89° C | 56% | 1011.1 hPa | 0 mm | - | - | - |
| 1777919786 | 19.44° C | 52% | 1011 hPa | 0 mm | - | - | - |
| 1777918886 | 19.44° C | 52% | 1010.8 hPa | 0 mm | - | - | - |
| 1777917986 | 18.89° C | 52% | 1010.7 hPa | 0 mm | - | - | - |
| 1777917085 | 18.89° C | 50% | 1010.7 hPa | 0 mm | - | - | - |
| 1777916185 | 18.89° C | 51% | 1011 hPa | 0 mm | - | - | - |
| 1777915286 | 18.89° C | 54% | 1011.1 hPa | 0 mm | - | - | - |
| 1777914385 | 18.89° C | 54% | 1011.2 hPa | 0 mm | - | - | - |
| 1777913486 | 18.33° C | 56% | 1011.3 hPa | 0 mm | - | - | - |
| 1777912585 | 18.33° C | 56% | 1011.4 hPa | 0 mm | - | - | - |
| 1777911686 | 18.33° C | 56% | 1011.6 hPa | 0 mm | - | - | - |
| 1777910786 | 18.33° C | 56% | 1011.6 hPa | 0 mm | - | - | - |
| 1777909885 | 18.33° C | 56% | 1011.7 hPa | 0 mm | - | - | - |
| 1777908985 | 18.33° C | 59% | 1011.9 hPa | 0 mm | - | - | - |
| 1777908086 | 18.33° C | 59% | 1012 hPa | 0 mm | - | - | - |
| 1777907187 | 17.78° C | 62% | 1012.1 hPa | 0 mm | - | - | - |
| 1777906286 | 17.22° C | 61% | 1012.3 hPa | 0 mm | - | - | - |
| 1777905385 | 17.22° C | 62% | 1012.4 hPa | 0 mm | - | - | - |
| 1777904485 | 17.22° C | 61% | 1012.4 hPa | 0 mm | - | - | - |
| 1777903586 | 16.67° C | 61% | 1012.6 hPa | 0 mm | - | - | - |
| 1777902685 | 15.56° C | 65% | 1012.5 hPa | 0 mm | - | - | - |
| 1777901787 | 15.56° C | 65% | 1012.6 hPa | 0 mm | - | - | - |
* Rain latest hour (hover to see other rain measurements)
** Current wind speed in m/s (hover to see current wind gust speed)